Time;durP1;ratioP1;P1;durP2;ratioP2;P2;SDS_P1;SDS_P2;PMS_P1;PMS_P2;Temp;Humidity;BMP_temperature;BMP_pressure;BME280_temperature;BME280_humidity;BME280_pressure;Samples;Min_cycle;Max_cycle;Signal;HPM_P1;HPM_P2
2022/04/23 00:01:16;;;;;;;;;;;9.60;83.30;;;;;;5002102;28;19917;-78
2022/04/23 00:03:42;;;;;;;;;;;9.50;83.70;;;;;;5018549;28;19921;-78
2022/04/23 00:06:07;;;;;;;;;;;9.50;83.00;;;;;;5018097;28;20012;-78
2022/04/23 00:08:33;;;;;;;;;;;9.50;83.50;;;;;;5017915;28;19917;-78
2022/04/23 00:10:59;;;;;;;;;;;9.50;83.80;;;;;;5018331;28;19924;-79
2022/04/23 00:13:25;;;;;;;;;;;9.40;84.00;;;;;;5001951;28;19956;-78
2022/04/23 00:15:51;;;;;;;;;;;9.40;84.40;;;;;;5001717;28;20263;-78
2022/04/23 00:18:18;;;;;;;;;;;9.30;85.00;;;;;;5001925;28;19917;-78
2022/04/23 00:20:46;;;;;;;;;;;9.20;85.10;;;;;;5001800;28;19923;-79
2022/04/23 00:23:12;;;;;;;;;;;9.20;85.50;;;;;;4999880;28;19936;-78
2022/04/23 00:25:38;;;;;;;;;;;9.10;85.90;;;;;;5017246;28;20003;-78
2022/04/23 00:28:04;;;;;;;;;;;9.10;85.70;;;;;;5017866;28;19956;-78
2022/04/23 00:30:29;;;;;;;;;;;9.10;85.90;;;;;;5001440;28;19979;-78
2022/04/23 00:32:59;;;;;;;;;;;9.20;86.20;;;;;;5000752;28;19917;-78
2022/04/23 00:35:24;;;;;;;;;;;9.10;85.50;;;;;;5000543;28;19924;-78
2022/04/23 00:37:50;;;;;;;;;;;9.10;86.10;;;;;;5017897;28;20302;-79
2022/04/23 00:40:20;;;;;;;;;;;9.10;86.20;;;;;;5017864;28;20244;-78
2022/04/23 00:42:57;;;;;;;;;;;9.10;86.50;;;;;;5001313;28;19921;-79
2022/04/23 00:45:23;;;;;;;;;;;9.10;86.60;;;;;;5000675;28;19940;-78
2022/04/23 00:47:49;;;;;;;;;;;9.00;86.80;;;;;;5017408;28;19963;-78
2022/04/23 00:50:15;;;;;;;;;;;9.10;86.90;;;;;;5017169;28;19912;-78
2022/04/23 00:52:41;;;;;;;;;;;9.10;86.60;;;;;;5000543;28;20321;-78
2022/04/23 00:55:07;;;;;;;;;;;9.20;86.80;;;;;;5000200;28;19917;-78
2022/04/23 00:57:33;;;;;;;;;;;9.00;86.70;;;;;;5000940;28;20370;-79
2022/04/23 01:00:01;;;;;;;;;;;9.00;86.70;;;;;;5001198;28;19913;-79
2022/04/23 01:02:26;;;;;;;;;;;9.00;86.50;;;;;;5016425;28;20011;-78
2022/04/23 01:04:53;;;;;;;;;;;9.00;86.60;;;;;;5016864;28;20011;-79
2022/04/23 01:07:19;;;;;;;;;;;9.00;87.50;;;;;;5000751;28;19917;-79
2022/04/23 01:09:45;;;;;;;;;;;8.90;87.50;;;;;;5000609;28;20270;-79
2022/04/23 01:12:11;;;;;;;;;;;8.90;87.60;;;;;;5019916;28;19968;-79
2022/04/23 01:14:56;;;;;;;;;;;8.90;88.00;;;;;;5023638;28;19917;-75
2022/04/23 01:17:21;;;;;;;;;;;8.80;88.00;;;;;;5022488;28;19913;-75
2022/04/23 01:19:47;;;;;;;;;;;8.90;87.60;;;;;;5015111;28;19936;-79
2022/04/23 01:22:12;;;;;;;;;;;9.10;88.20;;;;;;5016763;28;19917;-79
2022/04/23 01:24:38;;;;;;;;;;;8.90;87.80;;;;;;4999745;28;20378;-79
2022/04/23 01:27:05;;;;;;;;;;;8.80;88.30;;;;;;5000012;28;20092;-79
2022/04/23 01:29:30;;;;;;;;;;;8.70;88.30;;;;;;5000442;28;19962;-78
2022/04/23 01:31:56;;;;;;;;;;;8.80;88.70;;;;;;5016220;28;20007;-79
2022/04/23 01:34:22;;;;;;;;;;;8.80;88.70;;;;;;4999481;28;19924;-79
2022/04/23 01:36:47;;;;;;;;;;;8.80;88.90;;;;;;5000477;28;19920;-79
2022/04/23 01:39:13;;;;;;;;;;;8.90;88.80;;;;;;4999926;28;19920;-79
2022/04/23 01:41:38;;;;;;;;;;;9.00;88.50;;;;;;4999987;28;19964;-79
2022/04/23 01:44:04;;;;;;;;;;;8.70;88.90;;;;;;5016949;28;19960;-78
2022/04/23 01:46:30;;;;;;;;;;;8.70;89.00;;;;;;5000550;28;19932;-79
2022/04/23 01:48:55;;;;;;;;;;;8.60;89.20;;;;;;5017088;28;19921;-78
2022/04/23 01:51:21;;;;;;;;;;;8.60;89.30;;;;;;5032625;28;19917;-79
2022/04/23 01:53:46;;;;;;;;;;;8.50;89.30;;;;;;5025196;28;19905;-78
2022/04/23 01:56:12;;;;;;;;;;;8.50;89.20;;;;;;5025171;28;19905;-79
2022/04/23 01:58:37;;;;;;;;;;;8.50;89.40;;;;;;5024539;28;19944;-78
2022/04/23 02:01:03;;;;;;;;;;;8.50;89.90;;;;;;5003638;28;19917;-78
2022/04/23 02:03:30;;;;;;;;;;;8.60;89.40;;;;;;5016228;28;20008;-79
2022/04/23 02:05:55;;;;;;;;;;;8.70;89.20;;;;;;5015915;28;19921;-79
2022/04/23 02:08:21;;;;;;;;;;;8.80;89.10;;;;;;4999602;28;19913;-79
2022/04/23 02:10:47;;;;;;;;;;;8.80;89.10;;;;;;4998985;28;19913;-79
2022/04/23 02:13:13;;;;;;;;;;;8.80;89.30;;;;;;4999892;28;19913;-79
2022/04/23 02:15:40;;;;;;;;;;;8.80;89.10;;;;;;5016073;28;19917;-79
2022/04/23 02:18:06;;;;;;;;;;;8.80;88.60;;;;;;4999382;28;19913;-79
2022/04/23 02:20:32;;;;;;;;;;;8.70;89.20;;;;;;4999627;28;20015;-78
2022/04/23 02:22:57;;;;;;;;;;;8.60;89.50;;;;;;4999524;28;19975;-79
2022/04/23 02:25:24;;;;;;;;;;;8.60;89.50;;;;;;5015625;28;20456;-79
2022/04/23 02:27:50;;;;;;;;;;;8.50;89.80;;;;;;4999391;28;19921;-79
2022/04/23 02:30:19;;;;;;;;;;;8.50;90.00;;;;;;4999122;28;19923;-78
2022/04/23 02:32:45;;;;;;;;;;;8.50;90.00;;;;;;4999580;28;19917;-79
2022/04/23 02:35:11;;;;;;;;;;;8.60;90.00;;;;;;4999621;28;19920;-78
2022/04/23 02:37:37;;;;;;;;;;;8.70;90.20;;;;;;5015571;28;19917;-79
2022/04/23 02:40:04;;;;;;;;;;;8.70;89.70;;;;;;5016914;28;19913;-78
2022/04/23 02:42:29;;;;;;;;;;;8.70;89.40;;;;;;5021108;28;20266;-79
2022/04/23 02:44:55;;;;;;;;;;;8.70;89.60;;;;;;5010567;28;19917;-75
2022/04/23 02:47:21;;;;;;;;;;;8.70;89.50;;;;;;5023421;28;19905;-75
2022/04/23 02:49:47;;;;;;;;;;;8.70;89.60;;;;;;5015228;28;19919;-79
2022/04/23 02:52:12;;;;;;;;;;;8.70;89.60;;;;;;5003275;28;19939;-79
2022/04/23 02:54:38;;;;;;;;;;;8.70;89.40;;;;;;5002874;28;20024;-78
2022/04/23 02:57:04;;;;;;;;;;;8.70;89.70;;;;;;5002837;28;19923;-78
2022/04/23 02:59:30;;;;;;;;;;;8.60;89.90;;;;;;5002933;28;19999;-79
2022/04/23 03:01:56;;;;;;;;;;;8.60;89.80;;;;;;5002575;28;19917;-79
2022/04/23 03:04:21;;;;;;;;;;;8.60;90.00;;;;;;5002541;28;19913;-79
2022/04/23 03:06:47;;;;;;;;;;;8.60;90.10;;;;;;5019429;28;19913;-79
2022/04/23 03:09:12;;;;;;;;;;;8.70;90.20;;;;;;5003335;28;19924;-79
2022/04/23 03:11:38;;;;;;;;;;;8.50;89.90;;;;;;5003148;28;19924;-79
2022/04/23 03:14:04;;;;;;;;;;;8.50;90.00;;;;;;5018638;28;20430;-79
2022/04/23 03:16:30;;;;;;;;;;;8.40;90.10;;;;;;5019648;28;19967;-79
2022/04/23 03:18:58;;;;;;;;;;;8.50;90.20;;;;;;5018840;28;20363;-79
2022/04/23 03:21:24;;;;;;;;;;;8.40;90.20;;;;;;5002540;28;19962;-79
2022/04/23 03:23:49;;;;;;;;;;;8.40;90.30;;;;;;5017714;28;19917;-79
2022/04/23 03:26:15;;;;;;;;;;;8.30;90.40;;;;;;5003196;28;19921;-79
2022/04/23 03:28:41;;;;;;;;;;;8.40;90.30;;;;;;5002841;28;19920;-79
2022/04/23 03:31:08;;;;;;;;;;;8.40;90.50;;;;;;5002207;28;19913;-79
2022/04/23 03:33:34;;;;;;;;;;;8.50;90.40;;;;;;5001790;28;19984;-79
2022/04/23 03:36:00;;;;;;;;;;;8.40;90.40;;;;;;5019105;28;20295;-79
2022/04/23 03:38:26;;;;;;;;;;;8.40;90.30;;;;;;5001865;28;19998;-79
2022/04/23 03:40:53;;;;;;;;;;;8.30;90.30;;;;;;5017772;28;19913;-78
2022/04/23 03:43:25;;;;;;;;;;;8.30;90.50;;;;;;5001556;28;19913;-79
2022/04/23 03:45:52;;;;;;;;;;;8.30;90.50;;;;;;5018659;28;19959;-79
2022/04/23 03:48:17;;;;;;;;;;;8.20;90.60;;;;;;5018557;28;19913;-78
2022/04/23 03:50:43;;;;;;;;;;;8.20;90.70;;;;;;5002103;28;19919;-79
2022/04/23 03:53:09;;;;;;;;;;;8.20;90.70;;;;;;5018131;28;19913;-79
2022/04/23 03:55:35;;;;;;;;;;;8.10;90.70;;;;;;5018075;28;19924;-79
2022/04/23 03:58:00;;;;;;;;;;;8.00;90.60;;;;;;5002024;28;19966;-78
2022/04/23 04:00:26;;;;;;;;;;;8.20;90.80;;;;;;5018248;28;19924;-79
2022/04/23 04:02:53;;;;;;;;;;;8.20;90.50;;;;;;5001498;28;19917;-79
2022/04/23 04:05:19;;;;;;;;;;;8.20;90.40;;;;;;5017971;28;19920;-79
2022/04/23 04:07:47;;;;;;;;;;;8.30;90.30;;;;;;5001947;28;19913;-79
2022/04/23 04:10:14;;;;;;;;;;;8.30;90.20;;;;;;5019829;28;20339;-79
2022/04/23 04:12:39;;;;;;;;;;;8.20;90.20;;;;;;5004185;28;20030;-79
2022/04/23 04:15:06;;;;;;;;;;;8.20;90.30;;;;;;5033950;28;19916;-76
2022/04/23 04:17:32;;;;;;;;;;;8.10;90.30;;;;;;5039341;28;19921;-74
2022/04/23 04:19:59;;;;;;;;;;;8.10;90.40;;;;;;5003761;28;19978;-78
2022/04/23 04:22:24;;;;;;;;;;;8.10;90.40;;;;;;5001271;28;19979;-78
2022/04/23 04:24:50;;;;;;;;;;;8.10;90.40;;;;;;5017694;28;20335;-78
2022/04/23 04:27:16;;;;;;;;;;;8.00;90.30;;;;;;5018004;28;20255;-78
2022/04/23 04:29:43;;;;;;;;;;;8.10;90.30;;;;;;5001675;28;20045;-78
2022/04/23 04:32:09;;;;;;;;;;;8.10;90.10;;;;;;5017282;28;19917;-78
2022/04/23 04:34:34;;;;;;;;;;;8.20;90.00;;;;;;5001375;28;20362;-78
2022/04/23 04:37:03;;;;;;;;;;;8.20;89.70;;;;;;5001628;28;20016;-79
2022/04/23 04:39:29;;;;;;;;;;;8.20;89.60;;;;;;5001559;28;20259;-79
2022/04/23 04:41:54;;;;;;;;;;;8.20;89.30;;;;;;5016743;28;19913;-79
2022/04/23 04:44:20;;;;;;;;;;;8.20;89.40;;;;;;5001173;28;19913;-78
2022/04/23 04:46:45;;;;;;;;;;;8.20;89.30;;;;;;5000990;28;20007;-78
2022/04/23 04:49:11;;;;;;;;;;;8.30;89.30;;;;;;5017886;28;19998;-79
2022/04/23 04:51:36;;;;;;;;;;;8.20;89.10;;;;;;5017190;28;19963;-79
2022/04/23 04:54:05;;;;;;;;;;;8.40;89.10;;;;;;5000963;28;19917;-79
2022/04/23 04:56:31;;;;;;;;;;;8.20;89.10;;;;;;5017597;28;19921;-79
2022/04/23 04:59:00;;;;;;;;;;;8.20;88.90;;;;;;5000947;28;19917;-79
2022/04/23 05:01:26;;;;;;;;;;;8.20;89.30;;;;;;5016902;28;19913;-80
2022/04/23 05:03:53;;;;;;;;;;;8.20;89.10;;;;;;5000464;28;20355;-79
2022/04/23 05:06:19;;;;;;;;;;;8.20;89.20;;;;;;5017137;28;20354;-79
2022/04/23 05:08:45;;;;;;;;;;;8.20;89.60;;;;;;5016372;28;19920;-79
2022/04/23 05:11:11;;;;;;;;;;;8.20;89.30;;;;;;5001037;28;19913;-79
2022/04/23 05:13:38;;;;;;;;;;;8.20;89.60;;;;;;5000294;28;19920;-80
2022/04/23 05:16:06;;;;;;;;;;;8.30;89.50;;;;;;5017269;28;20262;-80
2022/04/23 05:18:32;;;;;;;;;;;8.30;88.90;;;;;;5000402;28;19920;-80
2022/04/23 05:20:58;;;;;;;;;;;8.40;89.10;;;;;;5000243;28;20271;-80
2022/04/23 05:23:24;;;;;;;;;;;8.50;88.70;;;;;;4999696;28;19924;-80
2022/04/23 05:25:49;;;;;;;;;;;8.50;88.40;;;;;;4999893;28;19917;-79
2022/04/23 05:28:15;;;;;;;;;;;8.60;87.80;;;;;;5016690;28;19917;-80
2022/04/23 05:30:41;;;;;;;;;;;8.70;87.40;;;;;;5016009;28;19913;-80
2022/04/23 05:33:06;;;;;;;;;;;8.80;87.20;;;;;;5016385;28;19912;-78
2022/04/23 05:35:32;;;;;;;;;;;8.90;86.60;;;;;;4999897;28;20003;-75
2022/04/23 05:37:58;;;;;;;;;;;8.90;85.80;;;;;;5020238;28;19963;-77
2022/04/23 05:40:23;;;;;;;;;;;9.00;85.70;;;;;;5006581;28;19917;-78
2022/04/23 05:42:49;;;;;;;;;;;9.00;85.20;;;;;;5022826;28;19921;-74
2022/04/23 05:45:14;;;;;;;;;;;9.20;84.80;;;;;;5024295;28;19917;-73
2022/04/23 05:47:41;;;;;;;;;;;9.30;83.70;;;;;;5004250;28;19916;-74
2022/04/23 05:50:07;;;;;;;;;;;9.30;83.40;;;;;;5018116;28;20291;-80
2022/04/23 05:52:32;;;;;;;;;;;9.40;83.50;;;;;;4999740;28;19917;-77
2022/04/23 05:54:58;;;;;;;;;;;9.50;82.50;;;;;;4999747;28;19924;-76
2022/04/23 05:57:23;;;;;;;;;;;9.60;82.30;;;;;;5000140;28;19943;-79
2022/04/23 05:59:49;;;;;;;;;;;9.70;81.50;;;;;;5000293;28;20003;-77
2022/04/23 06:02:15;;;;;;;;;;;9.80;81.70;;;;;;5015982;28;19927;-76
2022/04/23 06:04:40;;;;;;;;;;;9.90;81.60;;;;;;5000162;28;19917;-82
2022/04/23 06:07:06;;;;;;;;;;;10.00;80.90;;;;;;5000103;28;19963;-76
2022/04/23 06:09:31;;;;;;;;;;;10.10;79.40;;;;;;4999990;28;20417;-77
2022/04/23 06:11:57;;;;;;;;;;;10.20;79.90;;;;;;4999426;28;19923;-76
2022/04/23 06:14:23;;;;;;;;;;;10.20;78.60;;;;;;5000068;28;19968;-76
2022/04/23 06:16:48;;;;;;;;;;;10.20;78.30;;;;;;5016519;28;19924;-76
2022/04/23 06:23:11;;;;;;;;;;;10.30;77.70;;;;;;4957387;28;19922;-78
2022/04/23 06:25:45;;;;;;;;;;;10.40;76.90;;;;;;4960160;28;19918;-79
2022/04/23 06:28:14;;;;;;;;;;;10.40;75.60;;;;;;4960545;28;20277;-77
2022/04/23 06:30:39;;;;;;;;;;;10.50;75.80;;;;;;4959747;28;19914;-79
2022/04/23 06:33:05;;;;;;;;;;;10.60;75.90;;;;;;4960439;28;20065;-78
2022/04/23 06:35:31;;;;;;;;;;;10.60;75.40;;;;;;4960294;28;19913;-79
2022/04/23 06:38:05;;;;;;;;;;;10.80;75.90;;;;;;4960589;28;19925;-77
2022/04/23 06:40:31;;;;;;;;;;;10.80;74.90;;;;;;4974194;28;19920;-77
2022/04/23 06:42:56;;;;;;;;;;;10.90;74.60;;;;;;4999451;28;19913;-77
2022/04/23 06:45:22;;;;;;;;;;;10.90;73.40;;;;;;5015841;28;20367;-76
2022/04/23 06:47:47;;;;;;;;;;;10.90;73.20;;;;;;5016092;28;19919;-77
2022/04/23 06:50:13;;;;;;;;;;;11.20;72.70;;;;;;4999546;28;20350;-77
2022/04/23 06:52:39;;;;;;;;;;;11.10;72.90;;;;;;5016011;28;20004;-75
2022/04/23 06:55:07;;;;;;;;;;;10.90;73.50;;;;;;5015922;28;19959;-76
2022/04/23 06:58:11;;;;;;;;;;;11.00;72.60;;;;;;5016428;28;19972;-77
2022/04/23 07:01:21;;;;;;;;;;;;;;;;;;;;;
2022/04/23 07:28:43;;;;;;;;;;;;;;;;;;;;;
2022/04/23 07:42:18;;;;;;;;;;;12.30;68.30;;;;;;4916998;29;20014;-78
2022/04/23 07:44:44;;;;;;;;;;;12.40;66.90;;;;;;4907177;28;19914;-79
2022/04/23 07:47:12;;;;;;;;;;;12.60;66.50;;;;;;4949536;28;19968;-78
2022/04/23 07:49:38;;;;;;;;;;;12.60;66.40;;;;;;4962691;28;19914;-77
2022/04/23 07:52:09;;;;;;;;;;;12.70;65.70;;;;;;4979287;28;20004;-74
2022/04/23 08:08:32;;;;;;;;;;;13.30;63.70;;;;;;4939245;29;19925;-73
2022/04/23 08:11:06;;;;;;;;;;;13.50;61.00;;;;;;4907455;29;20005;-72
2022/04/23 08:24:03;;;;;;;;;;;13.70;57.30;;;;;;4897933;29;20303;-74
2022/04/23 08:34:01;;;;;;;;;;;14.00;54.80;;;;;;4954532;28;20026;-72
2022/04/23 08:36:29;;;;;;;;;;;14.00;55.80;;;;;;4922543;29;20058;-75
2022/04/23 08:38:58;;;;;;;;;;;13.90;56.40;;;;;;4981093;28;19917;-75
2022/04/23 08:41:30;;;;;;;;;;;14.10;55.80;;;;;;4981042;28;19918;-74
2022/04/23 08:44:03;;;;;;;;;;;14.00;54.80;;;;;;4997021;28;19921;-75
2022/04/23 08:46:30;;;;;;;;;;;14.00;53.90;;;;;;5015051;28;19923;-75
2022/04/23 08:49:03;;;;;;;;;;;14.00;54.60;;;;;;4983430;28;20279;-75
2022/04/23 08:51:31;;;;;;;;;;;14.10;53.30;;;;;;5016163;28;19980;-75
2022/04/23 08:53:59;;;;;;;;;;;14.10;52.20;;;;;;4998757;28;19980;-74
2022/04/23 08:56:47;;;;;;;;;;;14.10;52.70;;;;;;5016406;28;19923;-74
2022/04/23 09:02:57;;;;;;;;;;;14.30;53.30;;;;;;4979691;28;19917;-76
2022/04/23 09:05:30;;;;;;;;;;;14.30;52.70;;;;;;4981560;28;19924;-77
2022/04/23 09:07:56;;;;;;;;;;;14.30;52.50;;;;;;4997691;28;19916;-79
2022/04/23 09:14:32;;;;;;;;;;;14.60;52.60;;;;;;4915175;29;20258;-76
2022/04/23 09:25:31;;;;;;;;;;;14.70;51.50;;;;;;4993446;28;19917;-76
2022/04/23 09:28:12;;;;;;;;;;;14.70;52.10;;;;;;5016708;28;19924;-76
2022/04/23 09:30:40;;;;;;;;;;;14.80;52.30;;;;;;5000451;28;19967;-76
2022/04/23 09:33:05;;;;;;;;;;;14.80;52.10;;;;;;5017011;28;19937;-76
2022/04/23 09:35:31;;;;;;;;;;;14.80;51.60;;;;;;5017533;28;20279;-75
2022/04/23 09:38:13;;;;;;;;;;;14.80;50.70;;;;;;5001163;28;20327;-75
2022/04/23 09:40:39;;;;;;;;;;;14.80;53.10;;;;;;5003435;28;19924;-73
2022/04/23 09:43:11;;;;;;;;;;;15.00;51.50;;;;;;5021261;28;19949;-74
2022/04/23 09:45:42;;;;;;;;;;;15.10;51.40;;;;;;5034226;28;19979;-78
2022/04/23 09:48:16;;;;;;;;;;;15.30;51.60;;;;;;5000323;28;20001;-73
2022/04/23 09:50:43;;;;;;;;;;;15.10;51.10;;;;;;5033538;28;19917;-75
2022/04/23 09:53:16;;;;;;;;;;;15.20;51.00;;;;;;5016425;28;19917;-75
2022/04/23 09:55:42;;;;;;;;;;;15.20;51.30;;;;;;4999538;28;19917;-79
2022/04/23 09:58:09;;;;;;;;;;;15.10;51.90;;;;;;5016509;28;19940;-75
2022/04/23 10:00:36;;;;;;;;;;;15.00;50.90;;;;;;5015461;28;20278;-77
2022/04/23 10:03:03;;;;;;;;;;;15.10;52.00;;;;;;5016030;28;19963;-77
2022/04/23 10:05:29;;;;;;;;;;;15.20;51.70;;;;;;5016119;28;19924;-79
2022/04/23 10:07:56;;;;;;;;;;;15.40;51.90;;;;;;4999505;28;19917;-77
2022/04/23 10:10:25;;;;;;;;;;;15.50;52.00;;;;;;4999397;28;19966;-77
2022/04/23 10:12:51;;;;;;;;;;;15.40;51.50;;;;;;4999455;28;19913;-75
2022/04/23 10:15:17;;;;;;;;;;;15.30;52.00;;;;;;5015758;28;19913;-77
2022/04/23 10:17:43;;;;;;;;;;;15.50;51.30;;;;;;5016480;28;19940;-75
2022/04/23 10:20:11;;;;;;;;;;;15.60;53.20;;;;;;5015901;28;20003;-75
2022/04/23 10:23:03;;;;;;;;;;;15.70;52.00;;;;;;5016008;28;20267;-76
2022/04/23 10:25:32;;;;;;;;;;;15.70;52.60;;;;;;4997529;28;20359;-76
2022/04/23 10:27:59;;;;;;;;;;;15.80;53.20;;;;;;5015746;28;19967;-77
2022/04/23 10:30:28;;;;;;;;;;;15.80;53.70;;;;;;5000165;28;19917;-80
2022/04/23 10:32:53;;;;;;;;;;;15.70;51.70;;;;;;5000453;28;19917;-78
2022/04/23 10:35:19;;;;;;;;;;;15.70;52.70;;;;;;5033717;28;19924;-79
2022/04/23 10:37:48;;;;;;;;;;;15.70;52.50;;;;;;5016046;28;20441;-78
2022/04/23 10:40:16;;;;;;;;;;;15.80;52.40;;;;;;5015461;28;19921;-79
2022/04/23 10:43:00;;;;;;;;;;;15.60;52.80;;;;;;5015996;28;19967;-78
2022/04/23 10:45:33;;;;;;;;;;;15.50;51.80;;;;;;5016089;28;19917;-78
2022/04/23 10:48:21;;;;;;;;;;;15.50;51.90;;;;;;5015213;28;20306;-78
2022/04/23 10:51:04;;;;;;;;;;;15.70;53.40;;;;;;5015135;28;19920;-78
2022/04/23 10:53:38;;;;;;;;;;;15.60;52.40;;;;;;5015380;28;19924;-78
2022/04/23 10:56:07;;;;;;;;;;;15.70;52.40;;;;;;4999934;28;19924;-78
2022/04/23 10:58:33;;;;;;;;;;;15.70;53.10;;;;;;4999253;28;19913;-78
2022/04/23 11:01:21;;;;;;;;;;;15.70;51.80;;;;;;5016362;28;19913;-76
2022/04/23 11:03:56;;;;;;;;;;;15.70;51.90;;;;;;5004941;28;19913;-75
2022/04/23 11:12:18;;;;;;;;;;;16.00;50.40;;;;;;5019492;28;19959;-77
2022/04/23 11:14:46;;;;;;;;;;;16.00;49.50;;;;;;5003489;28;19924;-76
2022/04/23 11:17:12;;;;;;;;;;;16.00;49.30;;;;;;5019642;28;19917;-77
2022/04/23 11:19:39;;;;;;;;;;;16.00;49.30;;;;;;5019042;28;19913;-78
2022/04/23 11:22:05;;;;;;;;;;;16.10;49.20;;;;;;5002969;28;19957;-77
2022/04/23 11:24:30;;;;;;;;;;;16.20;47.10;;;;;;5002881;28;19963;-77
2022/04/23 11:26:58;;;;;;;;;;;16.20;47.90;;;;;;5002551;28;20380;-78
2022/04/23 11:29:26;;;;;;;;;;;16.20;47.30;;;;;;5018567;28;19916;-77
2022/04/23 11:31:52;;;;;;;;;;;16.10;48.10;;;;;;5018929;28;19935;-78
2022/04/23 11:34:17;;;;;;;;;;;16.20;47.80;;;;;;5002282;28;19920;-78
2022/04/23 11:36:43;;;;;;;;;;;16.20;47.20;;;;;;4985453;28;19917;-78
2022/04/23 11:39:09;;;;;;;;;;;16.30;47.50;;;;;;5002121;28;19936;-78
2022/04/23 11:41:39;;;;;;;;;;;16.50;47.70;;;;;;5018137;28;20366;-78
2022/04/23 11:44:11;;;;;;;;;;;16.40;47.20;;;;;;5018438;28;19917;-78
2022/04/23 11:46:40;;;;;;;;;;;16.20;47.70;;;;;;5001452;28;20012;-77
2022/04/23 11:49:06;;;;;;;;;;;16.50;48.30;;;;;;5002266;28;19920;-78
2022/04/23 11:51:31;;;;;;;;;;;16.40;47.80;;;;;;5002271;28;20348;-78
2022/04/23 11:53:58;;;;;;;;;;;16.30;47.70;;;;;;5018849;28;19982;-78
2022/04/23 11:56:25;;;;;;;;;;;16.40;48.00;;;;;;5001865;28;19928;-78
2022/04/23 11:58:52;;;;;;;;;;;16.70;49.60;;;;;;5002502;28;19917;-78
2022/04/23 12:01:19;;;;;;;;;;;16.70;47.40;;;;;;5002390;28;20054;-79
2022/04/23 12:03:49;;;;;;;;;;;16.90;45.50;;;;;;5002130;28;19967;-78
2022/04/23 12:06:14;;;;;;;;;;;16.60;44.90;;;;;;5002022;28;19913;-78
2022/04/23 12:08:40;;;;;;;;;;;16.70;45.40;;;;;;5018448;28;20267;-77
2022/04/23 12:11:21;;;;;;;;;;;16.80;44.80;;;;;;5017713;28;20326;-78
2022/04/23 12:13:48;;;;;;;;;;;16.70;45.30;;;;;;5018177;28;19964;-78
2022/04/23 12:16:32;;;;;;;;;;;16.70;46.20;;;;;;5001372;28;19920;-78
2022/04/23 12:19:05;;;;;;;;;;;16.80;45.40;;;;;;5001477;28;20576;-78
2022/04/23 12:21:32;;;;;;;;;;;16.70;46.60;;;;;;5017900;28;19913;-78
2022/04/23 12:23:57;;;;;;;;;;;16.70;44.90;;;;;;5017703;28;19955;-77
2022/04/23 12:26:25;;;;;;;;;;;16.70;47.10;;;;;;5017447;28;20016;-77
2022/04/23 12:42:24;;;;;;;;;;;17.00;45.80;;;;;;5017574;28;20271;-78
2022/04/23 12:44:52;;;;;;;;;;;16.90;45.00;;;;;;5017557;28;19913;-79
2022/04/23 12:47:27;;;;;;;;;;;16.90;44.60;;;;;;5001213;28;19935;-78
2022/04/23 12:49:55;;;;;;;;;;;17.00;43.70;;;;;;5016932;28;20363;-78
2022/04/23 12:52:33;;;;;;;;;;;17.10;43.20;;;;;;5000558;28;19912;-78
2022/04/23 12:55:14;;;;;;;;;;;17.10;43.00;;;;;;5017208;28;19917;-78
2022/04/23 12:57:43;;;;;;;;;;;17.00;42.60;;;;;;5017067;28;19917;-78
2022/04/23 13:00:14;;;;;;;;;;;16.90;42.60;;;;;;5017318;28;19917;-78
2022/04/23 13:02:40;;;;;;;;;;;17.10;46.00;;;;;;5016363;28;19917;-78
2022/04/23 13:05:07;;;;;;;;;;;17.10;44.50;;;;;;5000949;28;19921;-79
2022/04/23 13:10:17;;;;;;;;;;;16.70;43.70;;;;;;5016855;28;19920;-78
2022/04/23 13:12:43;;;;;;;;;;;17.10;44.80;;;;;;5000652;28;19913;-78
2022/04/23 13:15:09;;;;;;;;;;;17.10;44.80;;;;;;5016866;28;20270;-78
2022/04/23 13:17:35;;;;;;;;;;;17.10;43.20;;;;;;5000355;28;19924;-78
2022/04/23 13:20:02;;;;;;;;;;;17.10;44.00;;;;;;5000607;28;19917;-78
2022/04/23 13:22:28;;;;;;;;;;;16.90;41.90;;;;;;5015939;28;19956;-78
2022/04/23 13:24:53;;;;;;;;;;;17.10;44.10;;;;;;5000128;28;19957;-78
2022/04/23 13:27:20;;;;;;;;;;;17.10;43.30;;;;;;4983581;28;19929;-77
2022/04/23 13:29:52;;;;;;;;;;;17.20;44.90;;;;;;5016800;28;20024;-78
2022/04/23 13:32:18;;;;;;;;;;;17.20;43.10;;;;;;5033526;28;19913;-78
2022/04/23 13:34:44;;;;;;;;;;;17.10;43.50;;;;;;5016291;28;20429;-78
2022/04/23 13:37:12;;;;;;;;;;;17.20;43.00;;;;;;5016468;28;19917;-78
2022/04/23 13:39:40;;;;;;;;;;;17.00;41.50;;;;;;5016416;28;20310;-79
2022/04/23 13:42:08;;;;;;;;;;;16.90;42.20;;;;;;4999280;28;19996;-78
2022/04/23 13:44:35;;;;;;;;;;;17.10;42.60;;;;;;5015985;28;20004;-79
2022/04/23 13:47:01;;;;;;;;;;;17.10;42.80;;;;;;4983690;28;19978;-78
2022/04/23 13:49:27;;;;;;;;;;;17.10;42.20;;;;;;5016065;28;20367;-78
2022/04/23 13:51:53;;;;;;;;;;;17.20;44.10;;;;;;5015386;28;19920;-79
2022/04/23 13:54:19;;;;;;;;;;;17.00;43.20;;;;;;5016412;28;19924;-77
2022/04/23 13:56:48;;;;;;;;;;;17.20;43.60;;;;;;5016536;28;19913;-78
2022/04/23 13:59:13;;;;;;;;;;;17.20;43.20;;;;;;5016190;28;19921;-77
2022/04/23 14:01:39;;;;;;;;;;;17.40;42.50;;;;;;5000284;28;19913;-77
2022/04/23 14:12:21;;;;;;;;;;;17.50;41.20;;;;;;5016069;28;19959;-77
2022/04/23 14:14:50;;;;;;;;;;;17.50;41.20;;;;;;5016405;28;19917;-75
2022/04/23 14:21:07;;;;;;;;;;;17.60;41.30;;;;;;4973664;28;19953;-75
2022/04/23 14:23:33;;;;;;;;;;;17.50;40.80;;;;;;4960207;28;19965;-75
2022/04/23 14:26:01;;;;;;;;;;;17.60;41.00;;;;;;5033629;28;19912;-76
2022/04/23 14:28:27;;;;;;;;;;;17.60;40.60;;;;;;5037400;28;19905;-77
2022/04/23 14:30:52;;;;;;;;;;;17.90;40.20;;;;;;5022673;28;19909;-76
2022/04/23 14:33:18;;;;;;;;;;;17.70;39.60;;;;;;5032339;28;19967;-73
2022/04/23 14:35:43;;;;;;;;;;;17.70;40.30;;;;;;5014529;28;19921;-73
2022/04/23 14:38:09;;;;;;;;;;;17.60;40.90;;;;;;4998571;28;19917;-73
2022/04/23 14:40:37;;;;;;;;;;;17.70;41.50;;;;;;5015105;28;20348;-77
2022/04/23 14:43:05;;;;;;;;;;;17.80;40.50;;;;;;5016144;28;19924;-73
2022/04/23 14:45:31;;;;;;;;;;;18.00;38.50;;;;;;5002042;28;19917;-73
2022/04/23 14:47:56;;;;;;;;;;;17.90;39.40;;;;;;5018576;28;20386;-71
2022/04/23 14:50:22;;;;;;;;;;;17.90;39.40;;;;;;5018138;28;19921;-71
2022/04/23 14:55:32;;;;;;;;;;;18.10;40.50;;;;;;5017513;28;19924;-71
2022/04/23 14:57:58;;;;;;;;;;;18.20;39.20;;;;;;5018428;28;20293;-71
2022/04/23 15:00:24;;;;;;;;;;;18.40;39.50;;;;;;5017404;28;19929;-73
2022/04/23 15:02:51;;;;;;;;;;;18.40;38.90;;;;;;5017432;28;19936;-72
2022/04/23 15:05:17;;;;;;;;;;;18.50;39.40;;;;;;5017033;28;19913;-71
2022/04/23 15:07:42;;;;;;;;;;;18.60;39.80;;;;;;5002212;28;20307;-73
2022/04/23 15:10:08;;;;;;;;;;;18.60;37.90;;;;;;5035937;28;19920;-72
2022/04/23 15:12:33;;;;;;;;;;;18.70;38.00;;;;;;5017311;28;19952;-72
2022/04/23 15:15:07;;;;;;;;;;;18.80;38.10;;;;;;5018175;28;20006;-72
2022/04/23 15:17:33;;;;;;;;;;;18.70;37.60;;;;;;5019643;28;19940;-71
2022/04/23 15:19:58;;;;;;;;;;;18.70;37.60;;;;;;5018680;28;19920;-72
2022/04/23 15:22:24;;;;;;;;;;;18.80;38.70;;;;;;5018206;28;19956;-71
2022/04/23 15:24:49;;;;;;;;;;;18.50;37.60;;;;;;5036368;28;19920;-72
2022/04/23 15:27:16;;;;;;;;;;;18.70;38.00;;;;;;5002502;28;20252;-71
2022/04/23 15:29:41;;;;;;;;;;;18.90;37.60;;;;;;5002375;28;19917;-77
2022/04/23 15:32:07;;;;;;;;;;;19.00;37.30;;;;;;5002575;28;20362;-77
2022/04/23 15:34:35;;;;;;;;;;;18.70;37.50;;;;;;5018655;28;19971;-75
2022/04/23 15:37:10;;;;;;;;;;;19.00;36.80;;;;;;5018399;28;19971;-74
2022/04/23 15:39:35;;;;;;;;;;;18.90;36.90;;;;;;5018644;28;20375;-74
2022/04/23 15:42:03;;;;;;;;;;;19.00;37.10;;;;;;5018146;28;19913;-75
2022/04/23 15:44:29;;;;;;;;;;;19.00;37.90;;;;;;5018520;28;19913;-77
2022/04/23 15:46:57;;;;;;;;;;;19.30;36.10;;;;;;4986772;28;19982;-77
2022/04/23 15:49:23;;;;;;;;;;;19.10;36.40;;;;;;5018092;28;19913;-77
2022/04/23 15:51:52;;;;;;;;;;;18.90;36.40;;;;;;5001515;28;19920;-81
2022/04/23 15:54:20;;;;;;;;;;;19.10;37.70;;;;;;5017755;28;19943;-76
2022/04/23 15:56:46;;;;;;;;;;;19.20;36.60;;;;;;5018539;28;20271;-76
2022/04/23 15:59:14;;;;;;;;;;;19.40;37.40;;;;;;5001618;28;20004;-80
2022/04/23 16:01:49;;;;;;;;;;;19.00;36.00;;;;;;5001942;28;20011;-79
2022/04/23 16:04:15;;;;;;;;;;;18.90;36.90;;;;;;5002621;28;19959;-77
2022/04/23 16:06:40;;;;;;;;;;;18.90;36.10;;;;;;5001793;28;20307;-76
2022/04/23 16:09:06;;;;;;;;;;;18.50;36.40;;;;;;5003329;28;19917;-77
2022/04/23 16:11:31;;;;;;;;;;;17.90;37.70;;;;;;5034222;28;19960;-76
2022/04/23 16:13:57;;;;;;;;;;;17.40;39.60;;;;;;5026859;28;19912;-77
2022/04/23 16:16:23;;;;;;;;;;;17.20;40.60;;;;;;5026844;28;19968;-74
2022/04/23 16:18:49;;;;;;;;;;;17.10;39.90;;;;;;5043254;28;19905;-72
2022/04/23 16:21:15;;;;;;;;;;;16.80;41.10;;;;;;5011213;28;19917;-73
2022/04/23 16:23:43;;;;;;;;;;;16.70;40.40;;;;;;5001874;28;19939;-78
2022/04/23 16:26:08;;;;;;;;;;;16.50;41.10;;;;;;5017909;28;19924;-77
2022/04/23 16:28:34;;;;;;;;;;;16.40;42.60;;;;;;5001547;28;19920;-78
2022/04/23 16:31:00;;;;;;;;;;;16.40;42.80;;;;;;5019344;28;19913;-79